createdAt,value
2023-10-29T05:00:52.166Z,97857.31
2023-10-29T05:04:54.778Z,97848.06
2023-10-29T05:08:57.641Z,97838.34
2023-10-29T05:13:01.007Z,97846.94
2023-10-29T05:17:05.286Z,97843.16
2023-10-29T05:21:08.958Z,97829.69
2023-10-29T05:25:11.793Z,97843.72
2023-10-29T05:29:14.610Z,97856.94
2023-10-29T05:33:18.627Z,97843.13
2023-10-29T05:37:21.292Z,97849.59
2023-10-29T05:41:23.934Z,97858.25
2023-10-29T05:45:26.551Z,97858.03
2023-10-29T05:49:30.511Z,97859.97
2023-10-29T05:53:33.375Z,97865.91
2023-10-29T05:57:36.062Z,97867.31
2023-10-29T06:01:39.656Z,97881.19
2023-10-29T06:05:43.766Z,97879.84
2023-10-29T06:09:46.355Z,97866.63
2023-10-29T06:13:49.111Z,97854.47
2023-10-29T06:17:51.811Z,97879.66
2023-10-29T06:21:55.892Z,97876.97
2023-10-29T06:25:58.545Z,97893.53
2023-10-29T06:30:02.111Z,97884.94
2023-10-29T06:34:05.532Z,97882.56
2023-10-29T06:38:09.566Z,97902.28
2023-10-29T06:42:12.170Z,97916.69
2023-10-29T06:46:16.342Z,97900.53
2023-10-29T06:50:19.349Z,97893.56
2023-10-29T06:54:23.388Z,97900.38
2023-10-29T06:58:25.988Z,97884.44
2023-10-29T07:02:28.672Z,97901.84
2023-10-29T07:06:32.163Z,97895.38
2023-10-29T07:10:36.380Z,97892.72
2023-10-29T07:14:39.048Z,97889.00
2023-10-29T07:18:41.851Z,97894.97
2023-10-29T07:22:44.603Z,97902.00
2023-10-29T07:26:48.536Z,97902.84
2023-10-29T07:30:51.137Z,97921.00
2023-10-29T07:34:53.761Z,97929.13
2023-10-29T07:38:56.438Z,97924.22
2023-10-29T07:43:00.494Z,97938.91
2023-10-29T07:47:09.078Z,97940.78
2023-10-29T07:51:11.719Z,97909.63
2023-10-29T07:55:14.325Z,97885.22
2023-10-29T07:59:18.255Z,97895.78
2023-10-29T08:03:20.954Z,97897.69
2023-10-29T08:07:23.864Z,97909.59
2023-10-29T08:11:26.496Z,97931.00
2023-10-29T08:15:30.451Z,97921.78
2023-10-29T08:19:33.096Z,97902.28
2023-10-29T08:23:36.422Z,97899.28
2023-10-29T08:27:39.099Z,97899.84
2023-10-29T08:31:43.085Z,97899.00
2023-10-29T08:35:46.525Z,97902.28
2023-10-29T08:39:49.198Z,97882.22
2023-10-29T08:43:53.350Z,97857.84
2023-10-29T08:47:57.334Z,97889.06
2023-10-29T08:52:00.108Z,97893.69
2023-10-29T08:56:04.632Z,97908.88
2023-10-29T09:00:08.464Z,97930.03
2023-10-29T09:04:13.298Z,97933.84
2023-10-29T09:08:16.192Z,97952.84
2023-10-29T09:12:18.861Z,97966.13
2023-10-29T09:16:21.750Z,97974.00
2023-10-29T09:20:27.174Z,97980.50
2023-10-29T09:24:29.993Z,97984.28
2023-10-29T09:28:32.659Z,97979.69
2023-10-29T09:32:36.596Z,97981.63
2023-10-29T09:36:40.906Z,97968.28
2023-10-29T09:40:43.583Z,97979.19
2023-10-29T09:44:50.749Z,98000.59
2023-10-29T09:48:55.775Z,98006.03
2023-10-29T09:53:02.402Z,98030.97
2023-10-29T09:57:05.090Z,98032.31
2023-10-29T10:01:07.798Z,98042.31
2023-10-29T10:05:11.139Z,98039.38
2023-10-29T10:09:15.463Z,98030.75
2023-10-29T10:13:18.195Z,98004.47
2023-10-29T10:17:20.847Z,98019.13
2023-10-29T10:21:24.896Z,98030.53
2023-10-29T10:25:30.443Z,98038.94
2023-10-29T10:29:33.772Z,98029.97
2023-10-29T10:33:36.257Z,98045.44
2023-10-29T10:37:54.156Z,98024.84
2023-10-29T10:42:00.514Z,98021.84
2023-10-29T10:46:07.657Z,98013.69
2023-10-29T10:50:10.805Z,98028.09
2023-10-29T10:54:14.090Z,98011.00
2023-10-29T10:58:20.070Z,97988.47
2023-10-29T11:02:24.684Z,97988.44
2023-10-29T11:06:27.661Z,98000.66
2023-10-29T11:10:30.941Z,98004.19
2023-10-29T11:14:34.795Z,97996.31
2023-10-29T11:18:38.777Z,97994.38
2023-10-29T11:22:49.447Z,97994.38
2023-10-29T11:26:52.224Z,98006.34
2023-10-29T11:31:15.717Z,98004.72
2023-10-29T11:35:20.249Z,97997.41
2023-10-29T11:39:33.741Z,98000.38
2023-10-29T11:43:36.325Z,98000.66
2023-10-29T11:48:11.572Z,97997.16
2023-10-29T11:52:14.266Z,97990.88
2023-10-29T11:56:18.334Z,97984.09
2023-10-29T12:00:21.570Z,97982.72
2023-10-29T12:04:31.723Z,97987.31
2023-10-29T12:08:34.729Z,97995.75
2023-10-29T12:12:39.218Z,97996.56
2023-10-29T12:16:43.274Z,97997.38
2023-10-29T12:20:48.251Z,97991.72
2023-10-29T12:24:54.850Z,97967.81
2023-10-29T12:28:57.622Z,97962.38
2023-10-29T12:33:21.751Z,97974.03
2023-10-29T12:37:27.370Z,97994.97
2023-10-29T12:41:33.113Z,98005.81
2023-10-29T12:45:36.820Z,97990.88
2023-10-29T12:49:39.738Z,97965.91
2023-10-29T12:53:43.759Z,97954.25
2023-10-29T12:57:46.842Z,97955.03
2023-10-29T13:01:51.167Z,97949.59
2023-10-29T13:05:55.782Z,97940.09
2023-10-29T13:10:05.293Z,97938.47
2023-10-29T13:14:09.239Z,97949.84
2023-10-29T13:18:12.427Z,97955.31
2023-10-29T13:22:15.119Z,97957.22
2023-10-29T13:26:19.083Z,97965.38
2023-10-29T13:30:21.739Z,97959.94
2023-10-29T13:34:24.714Z,97959.41
2023-10-29T13:38:27.308Z,97948.00
2023-10-29T13:42:31.268Z,97967.00
2023-10-29T13:46:33.966Z,97977.34
2023-10-29T13:50:40.790Z,97965.34
2023-10-29T13:54:44.158Z,97971.59
2023-10-29T13:58:48.027Z,97985.44
2023-10-29T14:02:53.015Z,97995.41
2023-10-29T14:06:57.250Z,97971.00
2023-10-29T14:10:59.855Z,97967.22
2023-10-29T14:15:04.034Z,97997.00
2023-10-29T14:19:07.282Z,98005.69
2023-10-29T14:23:10.306Z,97975.88
2023-10-29T14:27:12.919Z,97967.44
2023-10-29T14:31:16.993Z,97970.16
2023-10-29T14:35:19.682Z,97983.44
2023-10-29T14:39:22.320Z,97975.31
2023-10-29T14:43:25.319Z,97975.31
2023-10-29T14:47:29.782Z,97965.56
2023-10-29T14:51:32.403Z,97969.66
2023-10-29T14:55:35.016Z,97971.50
2023-10-29T14:59:37.784Z,97959.59
2023-10-29T15:03:41.919Z,97945.47
2023-10-29T15:07:44.613Z,97933.56
2023-10-29T15:11:47.677Z,97902.94
2023-10-29T15:15:50.456Z,97907.50
2023-10-29T15:19:55.360Z,97895.31
2023-10-29T15:23:59.252Z,97889.88
2023-10-29T15:28:01.850Z,97906.41
2023-10-29T15:32:04.953Z,97930.78
2023-10-29T15:36:10.583Z,97929.72
2023-10-29T15:40:13.634Z,97922.94
2023-10-29T15:44:16.368Z,97930.22
2023-10-29T15:48:19.102Z,97912.88
2023-10-29T15:52:23.612Z,97886.84
2023-10-29T15:56:27.573Z,97854.56
2023-10-29T16:00:30.487Z,97865.91
2023-10-29T16:04:34.682Z,97881.09
2023-10-29T16:08:40.016Z,97864.06
2023-10-29T16:12:43.766Z,97842.38
2023-10-29T16:16:46.380Z,97830.13
2023-10-29T16:20:49.106Z,97797.38
2023-10-29T16:24:53.056Z,97824.75
2023-10-29T16:28:55.657Z,97827.19
2023-10-29T16:32:58.363Z,97844.78
2023-10-29T16:37:01.431Z,97834.19
2023-10-29T16:41:07.594Z,97830.69
2023-10-29T16:45:10.905Z,97849.38
2023-10-29T16:49:13.498Z,97862.59
2023-10-29T16:53:16.083Z,97878.00
2023-10-29T16:57:20.278Z,97909.72
2023-10-29T17:01:23.437Z,97927.84
2023-10-29T17:05:26.095Z,97908.63
2023-10-29T17:09:30.609Z,97894.78
2023-10-29T17:13:34.591Z,97886.38
2023-10-29T17:17:37.250Z,97910.75
2023-10-29T17:21:40.132Z,97925.66
2023-10-29T17:25:42.814Z,97931.34
2023-10-29T17:29:48.536Z,97941.69
2023-10-29T17:33:51.624Z,97951.19
2023-10-29T17:37:55.173Z,97953.38
2023-10-29T17:41:57.786Z,97942.03
2023-10-29T17:46:01.792Z,97924.16
2023-10-29T17:50:04.572Z,97943.69
2023-10-29T17:54:07.615Z,97917.69
2023-10-29T17:58:10.325Z,97977.00
2023-10-29T18:02:14.248Z,97944.78
2023-10-29T18:06:23.336Z,97954.81
2023-10-29T18:10:26.925Z,97964.84
2023-10-29T18:14:29.637Z,97960.72
2023-10-29T18:18:34.011Z,97973.97
2023-10-29T18:22:36.786Z,97980.59
2023-10-29T18:26:40.271Z,97997.84
2023-10-29T18:30:42.913Z,97992.13
2023-10-29T18:34:47.215Z,97967.69
2023-10-29T18:38:51.196Z,97975.19
2023-10-29T18:42:53.807Z,97985.41
2023-10-29T18:46:56.394Z,97999.47
2023-10-29T18:51:04.303Z,97993.22
2023-10-29T18:55:08.095Z,97994.09
2023-10-29T18:59:10.652Z,98015.16
2023-10-29T19:03:13.451Z,98026.53
2023-10-29T19:07:17.527Z,98040.59
2023-10-29T19:11:20.134Z,98035.69
2023-10-29T19:15:22.769Z,98029.97
2023-10-29T19:19:25.421Z,98048.00
2023-10-29T19:23:29.557Z,98063.53
2023-10-29T19:27:32.234Z,98066.19
2023-10-29T19:31:34.917Z,98069.63
2023-10-29T19:35:37.553Z,98076.44
2023-10-29T19:39:41.500Z,98069.47
2023-10-29T19:43:44.168Z,98078.56
2023-10-29T19:47:47.095Z,98094.53
2023-10-29T19:51:49.802Z,98094.03
2023-10-29T19:55:53.982Z,98100.38
2023-10-29T19:59:58.379Z,98100.22
2023-10-29T20:04:02.975Z,98100.47
2023-10-29T20:08:06.205Z,98104.72
2023-10-29T20:12:10.357Z,98120.63
2023-10-29T20:16:13.135Z,98119.25
2023-10-29T20:20:19.051Z,98127.44
2023-10-29T20:24:21.788Z,98141.94
2023-10-29T20:28:25.872Z,98142.59
2023-10-29T20:32:28.581Z,98154.47
2023-10-29T20:36:31.360Z,98162.63
2023-10-29T20:40:34.040Z,98171.06
2023-10-29T20:44:39.043Z,98173.69
2023-10-29T20:48:41.665Z,98184.53
2023-10-29T20:52:44.778Z,98183.16
2023-10-29T20:56:48.396Z,98190.53
2023-10-29T21:00:52.692Z,98187.94
2023-10-29T21:04:55.412Z,98201.78
2023-10-29T21:08:58.526Z,98218.72
2023-10-29T21:13:01.942Z,98219.84
2023-10-29T21:17:05.843Z,98221.56
2023-10-29T21:21:08.371Z,98225.34
2023-10-29T21:25:11.065Z,98230.84
2023-10-29T21:29:13.683Z,98221.97
2023-10-29T21:33:17.672Z,98228.53
2023-10-29T21:37:20.759Z,98220.03
2023-10-29T21:41:28.074Z,98222.97
2023-10-29T21:45:30.713Z,98220.50
2023-10-29T21:49:39.392Z,98222.81
2023-10-29T21:53:42.126Z,98229.44
2023-10-29T21:57:44.782Z,98235.72
